createdAt,value
2022-08-11T00:00:06.549Z,44.41
2022-08-11T00:02:43.065Z,44.35
2022-08-11T00:05:15.550Z,44.30
2022-08-11T00:07:48.059Z,44.15
2022-08-11T00:10:23.221Z,44.44
2022-08-11T00:12:59.175Z,44.48
2022-08-11T00:15:42.315Z,44.37
2022-08-11T00:18:16.510Z,44.03
2022-08-11T00:20:48.348Z,44.07
2022-08-11T00:23:21.296Z,43.97
2022-08-11T00:25:54.807Z,44.02
2022-08-11T00:28:31.046Z,44.21
2022-08-11T00:31:05.661Z,43.99
2022-08-11T00:33:44.950Z,44.36
2022-08-11T00:36:23.397Z,44.52
2022-08-11T00:38:57.202Z,44.30
2022-08-11T00:41:37.365Z,44.33
2022-08-11T00:44:26.946Z,44.23
2022-08-11T00:47:12.692Z,44.36
2022-08-11T00:49:55.732Z,44.84
2022-08-11T00:52:39.604Z,45.25
2022-08-11T00:55:24.615Z,45.12
2022-08-11T00:58:43.890Z,45.06
2022-08-11T01:01:32.815Z,44.74
2022-08-11T01:04:26.815Z,45.23
2022-08-11T01:08:01.306Z,44.98
2022-08-11T01:10:51.813Z,44.88
2022-08-11T01:13:47.354Z,45.14
2022-08-11T01:16:44.521Z,45.40
2022-08-11T01:20:39.366Z,45.88
2022-08-11T01:23:22.455Z,45.75
2022-08-11T01:26:25.496Z,46.20
2022-08-11T01:29:40.018Z,45.90
2022-08-11T01:32:59.806Z,46.04
2022-08-11T01:35:58.170Z,46.07
2022-08-11T01:39:08.399Z,46.23
2022-08-11T01:42:20.866Z,46.54
2022-08-11T01:45:14.239Z,46.27
2022-08-11T01:47:55.066Z,46.23
2022-08-11T01:50:40.519Z,46.36
2022-08-11T01:53:27.250Z,46.12
2022-08-11T01:56:09.165Z,45.96
2022-08-11T01:58:48.382Z,45.71
2022-08-11T02:01:41.379Z,46.00
2022-08-11T02:04:25.697Z,46.36
2022-08-11T02:07:04.217Z,46.36
2022-08-11T02:09:56.633Z,46.68
2022-08-11T02:12:51.236Z,46.39
2022-08-11T02:15:34.635Z,46.99
2022-08-11T02:18:12.924Z,46.90
2022-08-11T02:21:02.278Z,47.10
2022-08-11T02:24:04.953Z,47.17
2022-08-11T02:26:44.147Z,47.00
2022-08-11T02:29:21.979Z,46.84
2022-08-11T02:32:28.747Z,47.13
2022-08-11T02:35:17.241Z,47.26
2022-08-11T02:37:57.177Z,47.41
2022-08-11T02:40:37.452Z,47.78
2022-08-11T02:43:16.845Z,47.77
2022-08-11T02:45:57.539Z,47.79
2022-08-11T02:49:02.166Z,47.86
2022-08-11T02:51:38.138Z,48.14
2022-08-11T02:54:18.935Z,47.76
2022-08-11T02:56:57.661Z,48.00
2022-08-11T02:59:55.373Z,48.46
2022-08-11T03:02:49.309Z,48.37
2022-08-11T03:05:33.584Z,48.05
2022-08-11T03:08:18.836Z,48.32
2022-08-11T03:11:12.503Z,48.48
2022-08-11T03:14:01.934Z,48.32
2022-08-11T03:16:50.173Z,48.78
2022-08-11T03:19:28.452Z,49.21
2022-08-11T03:22:28.015Z,49.41
2022-08-11T03:25:04.874Z,49.27
2022-08-11T03:27:44.586Z,49.24
2022-08-11T03:30:18.445Z,49.35
2022-08-11T03:33:25.421Z,48.91
2022-08-11T03:36:08.604Z,48.79
2022-08-11T03:38:51.636Z,49.08
2022-08-11T03:42:02.711Z,48.81
2022-08-11T03:45:00.150Z,48.48
2022-08-11T03:47:55.081Z,48.62
2022-08-11T03:50:42.246Z,48.24
2022-08-11T03:53:19.389Z,48.24
2022-08-11T03:56:19.301Z,47.91
2022-08-11T03:59:18.662Z,47.95
2022-08-11T04:02:28.062Z,48.06
2022-08-11T04:05:42.467Z,47.67
2022-08-11T04:08:42.237Z,47.83
2022-08-11T04:11:34.763Z,47.58
2022-08-11T04:14:50.502Z,47.66
2022-08-11T04:17:58.303Z,47.50
2022-08-11T04:20:54.653Z,47.31
2022-08-11T04:24:34.380Z,47.00
2022-08-11T04:26:50.655Z,47.23
2022-08-11T04:30:03.847Z,46.44
2022-08-11T04:32:47.324Z,46.25
2022-08-11T04:35:29.587Z,46.28
2022-08-11T04:38:30.555Z,46.24
2022-08-11T04:41:28.177Z,45.71
2022-08-11T04:44:25.519Z,45.78
2022-08-11T04:47:04.290Z,45.20
2022-08-11T04:50:14.891Z,44.90
2022-08-11T04:53:20.286Z,44.26
2022-08-11T04:56:23.473Z,42.90
2022-08-11T04:59:23.986Z,39.44
2022-08-11T05:02:20.368Z,36.53
2022-08-11T05:05:19.559Z,35.47
2022-08-11T05:08:25.579Z,34.56
2022-08-11T05:11:10.658Z,33.29
2022-08-11T05:14:01.076Z,32.42
2022-08-11T05:16:48.188Z,31.32
2022-08-11T05:19:32.479Z,29.79
2022-08-11T05:22:15.640Z,30.79
2022-08-11T05:25:06.301Z,31.45
2022-08-11T05:27:54.097Z,30.01
2022-08-11T05:30:43.021Z,30.31
2022-08-11T05:33:36.989Z,29.88
2022-08-11T05:36:15.293Z,29.85
2022-08-11T05:39:11.590Z,29.35
2022-08-11T05:41:55.642Z,29.96
2022-08-11T05:44:38.598Z,29.56
2022-08-11T05:47:25.600Z,31.26
2022-08-11T05:50:09.242Z,34.30
2022-08-11T05:53:02.039Z,33.16
2022-08-11T05:55:52.518Z,34.29
2022-08-11T05:58:42.032Z,33.35
2022-08-11T06:01:14.761Z,34.45
2022-08-11T06:04:05.279Z,35.24
2022-08-11T06:06:45.203Z,33.95
2022-08-11T06:09:17.694Z,33.14
2022-08-11T06:11:48.087Z,32.83
2022-08-11T06:14:18.613Z,32.63
2022-08-11T06:16:52.091Z,32.92
2022-08-11T06:19:26.409Z,33.95
2022-08-11T06:21:57.160Z,32.41
2022-08-11T06:24:29.315Z,33.07
2022-08-11T06:27:15.552Z,33.28
2022-08-11T06:29:55.235Z,32.65
2022-08-11T06:32:31.786Z,32.18
2022-08-11T06:35:15.555Z,31.98
2022-08-11T06:37:50.135Z,31.35
2022-08-11T06:40:36.596Z,32.22
2022-08-11T06:43:18.811Z,31.27
2022-08-11T06:45:56.202Z,32.02
2022-08-11T06:48:28.046Z,33.11
2022-08-11T06:51:12.817Z,31.29
2022-08-11T06:53:57.595Z,30.15
2022-08-11T06:57:06.625Z,28.32
2022-08-11T06:59:59.456Z,28.50
2022-08-11T07:02:35.008Z,27.29
2022-08-11T07:05:11.473Z,27.94
2022-08-11T07:08:35.850Z,29.34
2022-08-11T07:11:40.619Z,28.57
2022-08-11T07:14:36.347Z,28.58
2022-08-11T07:17:14.174Z,28.51
2022-08-11T07:20:02.586Z,28.00
2022-08-11T07:22:48.195Z,28.20
2022-08-11T07:25:34.261Z,27.99
2022-08-11T07:28:22.583Z,28.03
2022-08-11T07:30:59.725Z,28.14
2022-08-11T07:34:05.832Z,28.17
2022-08-11T07:36:31.283Z,28.07
2022-08-11T07:39:03.111Z,28.80
2022-08-11T07:41:39.250Z,28.29
2022-08-11T07:44:12.975Z,28.95
2022-08-11T07:46:57.464Z,28.50
2022-08-11T07:49:41.677Z,28.93
2022-08-11T07:52:24.632Z,28.34
2022-08-11T07:54:56.001Z,29.02
2022-08-11T07:58:13.772Z,28.18
2022-08-11T08:00:51.808Z,28.44
2022-08-11T08:03:36.262Z,28.23
2022-08-11T08:06:28.447Z,27.56
2022-08-11T08:09:22.351Z,27.90
2022-08-11T08:12:05.375Z,26.54
2022-08-11T08:14:51.558Z,26.59
2022-08-11T08:17:35.434Z,26.56
2022-08-11T08:20:08.004Z,25.72
2022-08-11T08:22:39.781Z,26.29
2022-08-11T08:25:13.022Z,26.14
2022-08-11T08:27:45.799Z,25.30
2022-08-11T08:30:31.513Z,25.48
2022-08-11T08:33:02.623Z,25.17
2022-08-11T08:35:33.368Z,27.45
2022-08-11T08:38:03.803Z,27.59
2022-08-11T08:40:34.540Z,26.38
2022-08-11T08:43:10.354Z,27.22
2022-08-11T08:45:43.347Z,27.36
2022-08-11T08:48:16.618Z,26.00
2022-08-11T08:51:03.408Z,25.59
2022-08-11T08:53:38.096Z,25.62
2022-08-11T08:56:28.493Z,27.04
2022-08-11T08:59:02.289Z,25.76
2022-08-11T09:01:41.707Z,26.53
2022-08-11T09:04:16.202Z,27.58
2022-08-11T09:06:52.287Z,27.26
2022-08-11T09:09:24.868Z,27.24
2022-08-11T09:12:01.553Z,27.97
2022-08-11T09:14:50.187Z,27.31
2022-08-11T09:17:25.254Z,26.76
2022-08-11T09:20:01.537Z,27.28
2022-08-11T09:22:57.342Z,26.35
2022-08-11T09:25:50.937Z,26.42
2022-08-11T09:28:23.495Z,26.19
2022-08-11T09:30:56.222Z,26.04
2022-08-11T09:33:31.012Z,26.96
2022-08-11T09:36:24.698Z,27.02
2022-08-11T09:39:08.436Z,27.41
2022-08-11T09:42:00.945Z,27.70
2022-08-11T09:44:44.309Z,27.51
2022-08-11T09:47:18.506Z,26.81
2022-08-11T09:49:53.426Z,26.87
2022-08-11T09:52:25.741Z,27.58
2022-08-11T09:54:57.586Z,27.95
2022-08-11T09:57:41.403Z,28.61
2022-08-11T10:00:15.409Z,29.42
2022-08-11T10:02:48.100Z,29.21
2022-08-11T10:05:35.239Z,29.15
2022-08-11T10:08:10.244Z,27.13
2022-08-11T10:10:42.159Z,26.81
2022-08-11T10:14:30.493Z,26.26
2022-08-11T10:16:15.533Z,26.44
2022-08-11T10:18:54.415Z,26.56
2022-08-11T10:21:36.298Z,26.14
2022-08-11T10:24:21.657Z,25.63
2022-08-11T10:26:55.293Z,26.54
2022-08-11T10:29:45.434Z,26.63
2022-08-11T10:32:49.442Z,26.11
2022-08-11T10:35:28.917Z,25.66
2022-08-11T10:38:08.395Z,26.65
2022-08-11T10:40:42.577Z,27.14
2022-08-11T10:43:14.281Z,26.92
2022-08-11T10:46:01.584Z,27.31
2022-08-11T10:48:40.373Z,26.59
2022-08-11T10:51:51.051Z,25.58
2022-08-11T10:54:23.857Z,25.09
2022-08-11T10:57:08.401Z,25.42
2022-08-11T10:59:39.377Z,26.23
2022-08-11T11:02:09.607Z,26.51
2022-08-11T11:04:50.915Z,26.66
2022-08-11T11:07:25.149Z,26.67
2022-08-11T11:10:02.173Z,25.72
2022-08-11T11:12:48.865Z,25.80
2022-08-11T11:15:34.672Z,25.47
2022-08-11T11:18:09.549Z,26.61
2022-08-11T11:20:47.326Z,27.11
2022-08-11T11:23:23.146Z,26.55
2022-08-11T11:26:16.939Z,25.22
2022-08-11T11:29:10.722Z,25.21
2022-08-11T11:31:57.565Z,24.09
2022-08-11T11:34:53.553Z,23.94
2022-08-11T11:37:26.523Z,24.16
2022-08-11T11:40:00.358Z,23.85
2022-08-11T11:42:33.771Z,23.86
2022-08-11T11:45:03.802Z,24.32
2022-08-11T11:47:36.002Z,24.46
2022-08-11T11:50:08.331Z,24.23
2022-08-11T11:52:41.190Z,24.34
2022-08-11T11:55:13.016Z,24.32
2022-08-11T11:58:02.747Z,23.29
2022-08-11T12:00:46.297Z,23.05
2022-08-11T12:03:17.119Z,24.07
2022-08-11T12:05:48.771Z,24.95
2022-08-11T12:08:23.380Z,24.89
2022-08-11T12:11:18.000Z,25.32
2022-08-11T12:13:51.162Z,25.11
2022-08-11T12:16:35.837Z,25.30
2022-08-11T12:19:10.607Z,24.57
2022-08-11T12:22:02.854Z,24.10
2022-08-11T12:24:47.393Z,24.33
2022-08-11T12:27:25.712Z,25.02
2022-08-11T12:30:06.017Z,25.58
2022-08-11T12:32:39.234Z,24.54
2022-08-11T12:35:11.532Z,24.81
2022-08-11T12:37:45.321Z,24.67
2022-08-11T12:40:43.607Z,24.02
2022-08-11T12:43:39.467Z,24.57
2022-08-11T12:46:15.806Z,23.82
2022-08-11T12:49:03.513Z,23.92
2022-08-11T12:52:12.144Z,23.76
2022-08-11T12:54:56.568Z,23.11
2022-08-11T12:57:43.945Z,23.23
2022-08-11T13:00:28.284Z,23.62
2022-08-11T13:03:14.841Z,23.98
2022-08-11T13:05:46.538Z,23.63
2022-08-11T13:08:17.584Z,23.31
2022-08-11T13:11:01.815Z,23.35
2022-08-11T13:13:55.406Z,23.16
2022-08-11T13:16:25.631Z,23.69
2022-08-11T13:19:01.498Z,23.78
2022-08-11T13:21:33.365Z,23.92
2022-08-11T13:24:04.687Z,23.83
2022-08-11T13:26:49.347Z,23.78
2022-08-11T13:29:22.338Z,24.29
2022-08-11T13:31:54.329Z,24.08
2022-08-11T13:34:34.447Z,23.35
2022-08-11T13:37:07.641Z,23.51
2022-08-11T13:39:39.997Z,23.75
2022-08-11T13:42:10.729Z,24.11
2022-08-11T13:44:41.503Z,24.67
2022-08-11T13:47:15.746Z,24.35
2022-08-11T13:49:49.262Z,24.28
2022-08-11T13:52:20.499Z,23.64
2022-08-11T13:54:54.183Z,23.84
2022-08-11T13:58:08.725Z,23.81
2022-08-11T14:00:25.121Z,23.39
2022-08-11T14:03:00.591Z,23.86
2022-08-11T14:05:40.755Z,24.01
2022-08-11T14:08:38.097Z,24.21
2022-08-11T14:12:22.792Z,24.29
2022-08-11T14:14:19.365Z,24.95
2022-08-11T14:16:53.171Z,25.32
2022-08-11T14:19:28.066Z,23.52
2022-08-11T14:22:08.346Z,24.60
2022-08-11T14:24:40.904Z,26.25
2022-08-11T14:28:32.097Z,26.27
2022-08-11T14:30:28.504Z,27.32
2022-08-11T14:33:00.109Z,27.27
2022-08-11T14:35:31.727Z,28.09
2022-08-11T14:38:05.608Z,28.91
2022-08-11T14:40:49.188Z,28.39
2022-08-11T14:44:03.300Z,26.43
2022-08-11T14:46:35.071Z,25.44
2022-08-11T14:49:06.084Z,26.45
2022-08-11T14:51:38.062Z,26.42
2022-08-11T14:54:24.130Z,26.86
2022-08-11T14:56:59.764Z,27.97
2022-08-11T14:59:30.758Z,29.03
2022-08-11T15:02:13.544Z,28.84
2022-08-11T15:04:46.029Z,29.17
2022-08-11T15:07:17.229Z,30.32
2022-08-11T15:12:44.849Z,33.36
2022-08-11T15:15:29.773Z,33.97
2022-08-11T15:18:04.446Z,34.29
2022-08-11T15:20:47.919Z,35.36
2022-08-11T15:23:36.543Z,35.84
2022-08-11T15:26:15.614Z,35.88
2022-08-11T15:29:02.982Z,36.93
2022-08-11T15:31:49.424Z,37.56
2022-08-11T15:34:35.550Z,36.78
2022-08-11T15:37:23.146Z,35.63
2022-08-11T15:40:31.434Z,35.43
2022-08-11T15:43:25.840Z,35.49
2022-08-11T15:46:03.969Z,35.16
2022-08-11T15:48:42.165Z,35.00
2022-08-11T15:51:15.915Z,34.90
2022-08-11T15:53:56.727Z,35.49
2022-08-11T15:56:29.742Z,35.19
2022-08-11T15:59:41.768Z,35.02
2022-08-11T16:02:21.773Z,34.61
2022-08-11T16:04:52.538Z,34.87
2022-08-11T16:07:27.383Z,35.01
2022-08-11T16:10:02.668Z,35.10
2022-08-11T16:12:40.938Z,36.41
2022-08-11T16:15:26.780Z,36.47
2022-08-11T16:18:02.251Z,37.20
2022-08-11T16:20:34.703Z,36.88
2022-08-11T16:23:07.825Z,37.11
2022-08-11T16:27:02.605Z,36.82
2022-08-11T16:28:33.426Z,36.46
2022-08-11T16:31:10.881Z,36.51
2022-08-11T16:33:50.102Z,35.88
2022-08-11T16:36:35.715Z,35.50
2022-08-11T16:39:07.214Z,36.85
2022-08-11T16:41:52.895Z,36.83
2022-08-11T16:44:38.330Z,36.81
2022-08-11T16:47:16.509Z,37.00
2022-08-11T16:49:52.598Z,37.47
2022-08-11T16:52:27.647Z,37.44
2022-08-11T16:54:59.944Z,37.67
2022-08-11T16:57:45.597Z,38.32
2022-08-11T17:00:19.440Z,38.54
2022-08-11T17:03:06.087Z,37.77
2022-08-11T17:05:53.693Z,37.72
2022-08-11T17:08:57.132Z,37.70
2022-08-11T17:11:43.343Z,37.37
2022-08-11T17:14:17.760Z,37.49
2022-08-11T17:17:11.060Z,37.38
2022-08-11T17:20:38.410Z,37.87
2022-08-11T17:22:53.804Z,37.72
2022-08-11T17:25:28.370Z,36.94
2022-08-11T17:27:59.630Z,36.73
2022-08-11T17:30:52.343Z,36.62
2022-08-11T17:33:36.662Z,36.57
2022-08-11T17:36:11.490Z,36.91
2022-08-11T17:38:43.469Z,36.92
2022-08-11T17:41:30.320Z,37.00
2022-08-11T17:44:29.406Z,37.15
2022-08-11T17:47:12.044Z,37.48
2022-08-11T17:49:46.010Z,37.76
2022-08-11T17:52:35.371Z,37.99
2022-08-11T17:55:51.091Z,38.87
2022-08-11T17:58:24.309Z,39.11
2022-08-11T18:00:56.890Z,39.91
2022-08-11T18:03:33.130Z,39.86
2022-08-11T18:06:05.420Z,40.38
2022-08-11T18:08:54.956Z,40.42
2022-08-11T18:12:10.313Z,41.48
2022-08-11T18:14:43.793Z,41.47
2022-08-11T18:17:26.441Z,41.45
2022-08-11T18:20:09.654Z,41.47
2022-08-11T18:22:56.030Z,41.88
2022-08-11T18:25:46.111Z,41.44
2022-08-11T18:28:32.332Z,41.16
2022-08-11T18:31:18.552Z,41.78
2022-08-11T18:34:07.754Z,41.92
2022-08-11T18:36:53.580Z,41.77
2022-08-11T18:39:38.826Z,41.81
2022-08-11T18:42:30.231Z,41.59
2022-08-11T18:45:16.771Z,42.27
2022-08-11T18:48:01.350Z,42.05
2022-08-11T18:50:45.101Z,42.08
2022-08-11T18:53:34.229Z,42.41
2022-08-11T18:56:16.886Z,42.07
2022-08-11T18:59:05.773Z,42.52
2022-08-11T19:01:53.184Z,42.82
2022-08-11T19:04:37.950Z,42.68
2022-08-11T19:07:23.223Z,42.78
2022-08-11T19:10:07.614Z,42.60
2022-08-11T19:12:54.700Z,43.24
2022-08-11T19:15:42.982Z,42.82
2022-08-11T19:18:30.507Z,43.35
2022-08-11T19:21:15.216Z,42.88
2022-08-11T19:24:02.804Z,43.27
2022-08-11T19:26:49.747Z,43.52
2022-08-11T19:30:07.415Z,43.52
2022-08-11T19:32:43.937Z,43.59
2022-08-11T19:35:26.962Z,43.58
2022-08-11T19:38:10.897Z,43.03
2022-08-11T19:40:54.359Z,43.57
2022-08-11T19:43:40.105Z,43.35
2022-08-11T19:46:23.840Z,43.47
2022-08-11T19:49:12.381Z,43.54
2022-08-11T19:51:55.898Z,43.55
2022-08-11T19:54:40.994Z,43.44
2022-08-11T19:57:23.861Z,43.97
2022-08-11T20:00:07.387Z,43.81
2022-08-11T20:02:50.579Z,44.23
2022-08-11T20:05:35.843Z,43.90
2022-08-11T20:08:22.107Z,44.56
2022-08-11T20:11:06.660Z,44.53
2022-08-11T20:13:51.226Z,44.06
2022-08-11T20:16:35.799Z,44.58
2022-08-11T20:19:25.979Z,44.41
2022-08-11T20:22:29.521Z,44.68
2022-08-11T20:25:12.351Z,44.51
2022-08-11T20:27:57.169Z,44.93
2022-08-11T20:30:40.101Z,44.80
2022-08-11T20:33:25.977Z,45.01
2022-08-11T20:36:09.270Z,45.31
2022-08-11T20:38:55.714Z,45.42
2022-08-11T20:41:58.420Z,45.32
2022-08-11T20:44:43.747Z,45.28
2022-08-11T20:47:27.133Z,45.13
2022-08-11T20:50:19.349Z,45.59
2022-08-11T20:53:03.035Z,45.46
2022-08-11T20:55:53.766Z,45.37
2022-08-11T20:59:11.042Z,45.30
2022-08-11T21:01:42.142Z,45.57
2022-08-11T21:04:25.228Z,45.43
2022-08-11T21:07:08.066Z,45.75
2022-08-11T21:09:58.307Z,45.44
2022-08-11T21:12:50.541Z,45.75
2022-08-11T21:15:47.438Z,45.71
2022-08-11T21:18:41.459Z,45.70
2022-08-11T21:21:27.226Z,45.67
2022-08-11T21:24:11.666Z,45.41
2022-08-11T21:27:03.316Z,45.57
2022-08-11T21:29:52.756Z,45.57
2022-08-11T21:32:37.452Z,45.68
2022-08-11T21:35:22.465Z,45.19
2022-08-11T21:38:07.125Z,45.63
2022-08-11T21:40:52.440Z,45.39
2022-08-11T21:43:36.876Z,45.49
2022-08-11T21:46:25.131Z,45.74
2022-08-11T21:49:10.065Z,46.18
2022-08-11T21:51:56.341Z,46.16
2022-08-11T21:54:40.508Z,45.63
2022-08-11T21:57:23.681Z,45.72
2022-08-11T22:00:08.669Z,45.84
2022-08-11T22:02:56.118Z,46.12
2022-08-11T22:05:41.028Z,46.15
2022-08-11T22:08:24.187Z,46.14
2022-08-11T22:11:07.244Z,46.14
2022-08-11T22:14:06.078Z,46.39
2022-08-11T22:16:51.389Z,46.39
2022-08-11T22:19:38.705Z,46.30
2022-08-11T22:22:26.320Z,46.42
2022-08-11T22:25:16.071Z,46.79
2022-08-11T22:27:59.785Z,46.73
2022-08-11T22:30:43.352Z,46.76
2022-08-11T22:33:28.844Z,46.71
2022-08-11T22:36:15.616Z,47.17
2022-08-11T22:39:01.347Z,46.75
2022-08-11T22:41:44.211Z,46.66
2022-08-11T22:44:27.486Z,46.61
2022-08-11T22:47:12.223Z,46.66
2022-08-11T22:49:58.616Z,46.70
2022-08-11T22:52:44.950Z,47.07
2022-08-11T22:55:29.418Z,46.99
2022-08-11T22:58:12.677Z,47.02
2022-08-11T23:00:56.484Z,47.40
2022-08-11T23:03:41.654Z,47.85
2022-08-11T23:06:24.776Z,47.83
2022-08-11T23:09:11.690Z,48.04
2022-08-11T23:12:06.206Z,47.80
2022-08-11T23:14:50.514Z,47.74
2022-08-11T23:17:33.174Z,48.22
2022-08-11T23:20:41.831Z,48.60
2022-08-11T23:23:19.684Z,48.52
2022-08-11T23:26:07.629Z,48.98
2022-08-11T23:28:51.946Z,48.28
2022-08-11T23:31:43.659Z,48.72
2022-08-11T23:35:03.045Z,49.22
2022-08-11T23:37:39.154Z,48.80
2022-08-11T23:40:23.317Z,49.32
2022-08-11T23:43:08.531Z,49.38
2022-08-11T23:45:52.739Z,49.36
2022-08-11T23:48:40.297Z,49.40
2022-08-11T23:51:24.639Z,49.40
2022-08-11T23:54:25.092Z,49.35
2022-08-11T23:57:08.979Z,49.78
2022-08-11T23:59:54.151Z,49.38
